createdAt,value
2023-12-05T00:01:33.612Z,-4.50
2023-12-05T00:04:05.660Z,-4.50
2023-12-05T00:06:38.667Z,-4.50
2023-12-05T00:09:12.533Z,-4.60
2023-12-05T00:11:44.349Z,-4.60
2023-12-05T00:14:16.144Z,-4.70
2023-12-05T00:16:47.933Z,-4.60
2023-12-05T00:19:19.883Z,-4.70
2023-12-05T00:21:51.901Z,-4.70
2023-12-05T00:24:23.754Z,-4.70
2023-12-05T00:26:55.531Z,-4.60
2023-12-05T00:29:27.346Z,-4.60
2023-12-05T00:31:59.099Z,-4.50
2023-12-05T00:34:31.488Z,-4.50
2023-12-05T00:37:03.428Z,-4.50
2023-12-05T00:39:35.455Z,-4.40
2023-12-05T00:42:07.604Z,-4.40
2023-12-05T00:44:39.374Z,-4.50
2023-12-05T00:47:11.416Z,-4.50
2023-12-05T00:49:43.470Z,-4.60
2023-12-05T00:52:15.369Z,-4.60
2023-12-05T00:54:47.157Z,-4.50
2023-12-05T00:57:18.964Z,-4.50
2023-12-05T00:59:50.915Z,-4.50
2023-12-05T01:02:22.874Z,-4.40
2023-12-05T01:04:54.849Z,-4.40
2023-12-05T01:07:26.726Z,-4.50
2023-12-05T01:09:58.539Z,-4.40
2023-12-05T01:12:30.463Z,-4.50
2023-12-05T01:15:05.781Z,-4.40
2023-12-05T01:17:37.612Z,-4.40
2023-12-05T01:20:12.546Z,-4.30
2023-12-05T01:22:44.457Z,-4.30
2023-12-05T01:25:16.276Z,-4.30
2023-12-05T01:27:48.789Z,-4.30
2023-12-05T01:30:21.081Z,-4.30
2023-12-05T01:32:52.890Z,-4.30
2023-12-05T01:35:24.665Z,-4.30
2023-12-05T01:37:56.494Z,-4.40
2023-12-05T01:40:29.354Z,-4.40
2023-12-05T01:43:01.141Z,-4.40
2023-12-05T01:45:32.951Z,-4.40
2023-12-05T01:48:06.885Z,-4.30
2023-12-05T01:50:39.342Z,-4.40
2023-12-05T01:53:12.831Z,-4.40
2023-12-05T01:55:44.671Z,-4.30
2023-12-05T01:58:17.238Z,-4.30
2023-12-05T02:00:49.226Z,-4.30
2023-12-05T02:03:21.381Z,-4.30
2023-12-05T02:05:54.467Z,-4.20
2023-12-05T02:08:29.277Z,-4.30
2023-12-05T02:11:01.194Z,-4.30
2023-12-05T02:13:33.066Z,-4.30
2023-12-05T02:16:18.852Z,-4.30
2023-12-05T02:19:06.130Z,-4.30
2023-12-05T02:21:41.300Z,-4.30
2023-12-05T02:24:31.423Z,-4.30
2023-12-05T02:27:16.447Z,-4.30
2023-12-05T02:29:52.728Z,-4.20
2023-12-05T02:32:24.651Z,-4.20
2023-12-05T02:34:56.785Z,-4.20
2023-12-05T02:37:39.946Z,-4.30
2023-12-05T02:40:18.693Z,-4.30
2023-12-05T02:42:52.885Z,-4.30
2023-12-05T02:45:28.312Z,-4.30
2023-12-05T02:48:01.878Z,-4.30
2023-12-05T02:50:33.857Z,-4.30
2023-12-05T02:53:05.664Z,-4.30
2023-12-05T02:55:39.520Z,-4.30
2023-12-05T02:58:11.266Z,-4.30
2023-12-05T03:00:43.447Z,-4.30
2023-12-05T03:03:15.266Z,-4.30
2023-12-05T03:05:47.123Z,-4.00
2023-12-05T03:08:19.195Z,-4.30
2023-12-05T03:10:58.593Z,-4.30
2023-12-05T03:13:31.897Z,-4.30
2023-12-05T03:16:03.900Z,-4.20
2023-12-05T03:18:36.003Z,-4.30
2023-12-05T03:21:08.148Z,-4.00
2023-12-05T03:23:40.010Z,-4.30
2023-12-05T03:26:22.172Z,-4.30
2023-12-05T03:28:54.085Z,-4.20
2023-12-05T03:31:25.832Z,-4.30
2023-12-05T03:33:57.617Z,-4.20
2023-12-05T03:36:29.462Z,-4.20
2023-12-05T03:39:01.634Z,-4.00
2023-12-05T03:41:33.451Z,-4.20
2023-12-05T03:44:05.334Z,-4.20
2023-12-05T03:46:37.106Z,-4.20
2023-12-05T03:49:08.920Z,-4.20
2023-12-05T03:51:40.797Z,-4.20
2023-12-05T03:54:12.641Z,-4.20
2023-12-05T03:56:44.419Z,-4.20
2023-12-05T03:59:16.130Z,-3.90
2023-12-05T04:01:48.047Z,-3.90
2023-12-05T04:04:19.873Z,-4.20
2023-12-05T04:06:52.754Z,-4.20
2023-12-05T04:09:24.569Z,-4.20
2023-12-05T04:11:56.346Z,-4.10
2023-12-05T04:14:28.081Z,-4.10
2023-12-05T04:16:59.948Z,-3.80
2023-12-05T04:19:31.734Z,-3.90
2023-12-05T04:22:03.641Z,-3.60
2023-12-05T04:24:35.431Z,-4.00
2023-12-05T04:27:07.245Z,-3.70
2023-12-05T04:29:38.992Z,-3.70
2023-12-05T04:32:10.842Z,-3.90
2023-12-05T04:34:44.325Z,-3.60
2023-12-05T04:37:16.142Z,-3.90
2023-12-05T04:39:48.103Z,-3.50
2023-12-05T04:42:19.894Z,-3.70
2023-12-05T04:44:51.827Z,-2.50
2023-12-05T04:47:23.652Z,-3.80
2023-12-05T04:49:55.487Z,-3.70
2023-12-05T04:52:27.489Z,-3.80
2023-12-05T04:54:59.539Z,-3.60
2023-12-05T04:57:31.422Z,-3.80
2023-12-05T05:00:04.516Z,-3.80
2023-12-05T05:02:36.580Z,-3.80
2023-12-05T05:05:08.632Z,-3.60
2023-12-05T05:07:40.626Z,-3.70
2023-12-05T05:10:12.403Z,-3.70
2023-12-05T05:12:44.221Z,-3.70
2023-12-05T05:15:16.149Z,-3.70
2023-12-05T05:17:47.962Z,-3.60
2023-12-05T05:20:21.366Z,-3.60
2023-12-05T05:22:53.132Z,-3.60
2023-12-05T05:25:24.981Z,-3.50
2023-12-05T05:27:56.881Z,-3.70
2023-12-05T05:30:28.972Z,-3.60
2023-12-05T05:33:00.831Z,-3.70
2023-12-05T05:35:33.925Z,-3.70
2023-12-05T05:38:05.708Z,-3.40
2023-12-05T05:40:37.468Z,-3.60
2023-12-05T05:43:09.369Z,-3.80
2023-12-05T05:45:41.333Z,-3.50
2023-12-05T05:48:13.127Z,-3.80
2023-12-05T05:50:45.047Z,-3.50
2023-12-05T05:53:16.936Z,-3.80
2023-12-05T05:55:48.684Z,-3.80
2023-12-05T05:58:20.487Z,-3.40
2023-12-05T06:00:52.365Z,-3.70
2023-12-05T06:03:25.239Z,-3.60
2023-12-05T06:05:59.930Z,-3.80
2023-12-05T06:08:31.835Z,-3.50
2023-12-05T06:11:03.692Z,-3.70
2023-12-05T06:13:35.514Z,-3.70
2023-12-05T06:16:08.488Z,-3.70
2023-12-05T06:18:40.263Z,-3.70
2023-12-05T06:21:12.017Z,-3.60
2023-12-05T06:23:43.868Z,-3.60
2023-12-05T06:26:15.712Z,-3.60
2023-12-05T06:28:47.468Z,-3.30
2023-12-05T06:31:19.860Z,-3.50
2023-12-05T06:33:52.540Z,-3.50
2023-12-05T06:36:24.580Z,-3.50
2023-12-05T06:38:56.352Z,-3.50
2023-12-05T06:41:28.120Z,-3.50
2023-12-05T06:43:59.856Z,-3.40
2023-12-05T06:46:31.922Z,-3.50
2023-12-05T06:49:04.606Z,-3.40
2023-12-05T06:51:36.657Z,-3.50
2023-12-05T06:54:08.421Z,-3.40
2023-12-05T06:56:40.612Z,-3.40
2023-12-05T06:59:12.354Z,-3.30
2023-12-05T07:01:44.164Z,-3.30
2023-12-05T07:04:16.104Z,-3.30
2023-12-05T07:06:47.982Z,-3.20
2023-12-05T07:09:21.163Z,-3.20
2023-12-05T07:11:52.953Z,-2.70
2023-12-05T07:14:24.692Z,-3.10
2023-12-05T07:16:56.428Z,-3.00
2023-12-05T07:19:28.210Z,-3.00
2023-12-05T07:22:00.003Z,-2.90
2023-12-05T07:24:32.129Z,-2.80
2023-12-05T07:27:04.178Z,-2.80
2023-12-05T07:29:36.109Z,-2.80
2023-12-05T07:32:07.880Z,-2.70
2023-12-05T07:34:40.405Z,-2.70
2023-12-05T07:37:12.298Z,-2.70
2023-12-05T07:39:44.256Z,-2.70
2023-12-05T07:42:16.221Z,-2.70
2023-12-05T07:44:47.985Z,-2.70
2023-12-05T07:47:19.966Z,-2.80
2023-12-05T07:49:51.952Z,-2.80
2023-12-05T07:52:23.707Z,-2.70
2023-12-05T07:54:55.642Z,-2.70
2023-12-05T07:57:27.442Z,-2.70
2023-12-05T08:00:01.004Z,-2.70
2023-12-05T08:02:32.772Z,-2.60
2023-12-05T08:05:04.919Z,-2.50
2023-12-05T08:07:36.765Z,-2.50
2023-12-05T08:10:10.106Z,-2.40
2023-12-05T08:12:41.937Z,-2.30
2023-12-05T08:15:13.724Z,-2.20
2023-12-05T08:17:45.495Z,-2.10
2023-12-05T08:20:17.247Z,-2.10
2023-12-05T08:22:48.986Z,-2.00
2023-12-05T08:25:21.213Z,-2.00
2023-12-05T08:27:53.047Z,-2.00
2023-12-05T08:30:24.919Z,-2.10
2023-12-05T08:32:59.741Z,-2.10
2023-12-05T08:35:31.568Z,-2.10
2023-12-05T08:38:03.925Z,-2.20
2023-12-05T08:40:36.107Z,-2.10
2023-12-05T08:43:07.859Z,-2.10
2023-12-05T08:45:39.682Z,-2.00
2023-12-05T08:48:11.585Z,-2.00
2023-12-05T08:50:43.606Z,-2.00
2023-12-05T08:53:15.421Z,-2.00
2023-12-05T08:55:47.162Z,-2.00
2023-12-05T08:58:18.914Z,-1.90
2023-12-05T09:00:50.706Z,-1.80
2023-12-05T09:03:22.612Z,-1.90
2023-12-05T09:05:54.601Z,-1.80
2023-12-05T09:08:27.083Z,-1.70
2023-12-05T09:10:59.038Z,-1.50
2023-12-05T09:13:31.010Z,-1.30
2023-12-05T09:16:02.890Z,-1.20
2023-12-05T09:18:34.922Z,-1.10
2023-12-05T09:21:07.938Z,-1.10
2023-12-05T09:23:40.133Z,-1.00
2023-12-05T09:26:14.670Z,-0.90
2023-12-05T09:28:46.433Z,-0.70
2023-12-05T09:31:18.181Z,-0.50
2023-12-05T09:33:50.876Z,-0.60
2023-12-05T09:36:23.000Z,-0.60
2023-12-05T09:38:54.762Z,-0.70
2023-12-05T09:41:28.334Z,-0.80
2023-12-05T09:44:05.022Z,-0.70
2023-12-05T09:46:47.247Z,-0.70
2023-12-05T09:49:27.010Z,-0.60
2023-12-05T09:52:01.226Z,-0.50
2023-12-05T09:54:34.416Z,-0.40
2023-12-05T09:57:07.437Z,-0.30
2023-12-05T09:59:39.335Z,-0.40
2023-12-05T10:02:13.816Z,-0.40
2023-12-05T10:04:46.861Z,-0.30
2023-12-05T10:07:19.051Z,-0.40
2023-12-05T10:09:52.120Z,-0.60
2023-12-05T10:12:23.915Z,-0.50
2023-12-05T10:14:55.723Z,-0.60
2023-12-05T10:17:29.662Z,-0.70
2023-12-05T10:20:01.556Z,-0.70
2023-12-05T10:22:33.408Z,-0.60
2023-12-05T10:25:08.461Z,-0.60
2023-12-05T10:27:40.237Z,-0.60
2023-12-05T10:30:13.107Z,-0.50
2023-12-05T10:32:46.290Z,-0.50
2023-12-05T10:35:29.108Z,-0.40
2023-12-05T10:38:06.919Z,-0.40
2023-12-05T10:40:58.331Z,-0.50
2023-12-05T10:43:30.096Z,-0.50
2023-12-05T10:46:06.412Z,-0.50
2023-12-05T10:48:38.599Z,-0.50
2023-12-05T10:51:10.887Z,-0.60
2023-12-05T10:53:44.045Z,-0.50
2023-12-05T10:56:16.911Z,-0.60
2023-12-05T10:58:49.167Z,-0.50
2023-12-05T11:01:23.040Z,-0.40
2023-12-05T11:03:59.702Z,-0.30
2023-12-05T11:06:31.836Z,-0.40
2023-12-05T11:09:03.963Z,-0.40
2023-12-05T11:11:41.742Z,-0.30
2023-12-05T11:14:16.009Z,-0.30
2023-12-05T11:16:50.401Z,-0.10
2023-12-05T11:20:05.789Z,0.00
2023-12-05T11:23:07.246Z,0.20
2023-12-05T11:25:57.692Z,0.30
2023-12-05T11:28:52.495Z,0.30
2023-12-05T11:31:56.759Z,0.30
2023-12-05T11:34:46.418Z,0.20
2023-12-05T11:37:43.109Z,0.30
2023-12-05T11:40:15.081Z,0.20
2023-12-05T11:43:08.622Z,0.20
2023-12-05T11:45:45.889Z,0.20
2023-12-05T11:48:25.430Z,0.30
2023-12-05T11:50:57.802Z,0.30
2023-12-05T11:53:30.325Z,0.30
2023-12-05T11:56:02.113Z,0.40
2023-12-05T11:58:36.023Z,0.40
2023-12-05T12:01:12.778Z,0.50
2023-12-05T12:03:48.700Z,0.50
2023-12-05T12:06:23.454Z,0.30
2023-12-05T12:08:57.315Z,0.20
2023-12-05T12:11:29.105Z,0.20
2023-12-05T12:14:16.457Z,0.20
2023-12-05T12:16:49.838Z,0.40
2023-12-05T12:19:21.839Z,0.50
2023-12-05T12:21:54.331Z,0.60
2023-12-05T12:24:26.958Z,0.60
2023-12-05T12:26:59.384Z,0.70
2023-12-05T12:29:31.546Z,0.80
2023-12-05T12:32:07.808Z,0.80
2023-12-05T12:34:46.716Z,0.80
2023-12-05T12:37:22.215Z,0.60
2023-12-05T12:39:54.661Z,0.50
2023-12-05T12:42:26.644Z,0.40
2023-12-05T12:44:58.395Z,0.40
2023-12-05T12:47:30.193Z,0.30
2023-12-05T12:50:01.949Z,0.20
2023-12-05T12:52:34.321Z,0.20
2023-12-05T12:55:08.029Z,0.20
2023-12-05T12:57:41.739Z,0.30
2023-12-05T13:00:31.608Z,0.30
2023-12-05T13:03:08.644Z,0.40
2023-12-05T13:05:41.433Z,0.40
2023-12-05T13:08:14.544Z,0.40
2023-12-05T13:10:46.416Z,0.30
2023-12-05T13:13:18.638Z,0.30
2023-12-05T13:15:50.502Z,0.30
2023-12-05T13:18:22.430Z,0.20
2023-12-05T13:20:56.181Z,0.20
2023-12-05T13:23:27.987Z,0.30
2023-12-05T13:25:59.741Z,0.20
2023-12-05T13:28:32.002Z,0.10
2023-12-05T13:31:03.973Z,0.00
2023-12-05T13:33:35.731Z,0.00
2023-12-05T13:36:07.992Z,-0.20
2023-12-05T13:38:41.478Z,-0.20
2023-12-05T13:41:13.263Z,-0.10
2023-12-05T13:43:45.017Z,-0.20
2023-12-05T13:46:18.161Z,-0.20
2023-12-05T13:48:50.216Z,-0.20
2023-12-05T13:51:24.825Z,-0.20
2023-12-05T13:53:57.355Z,-0.30
2023-12-05T13:56:29.708Z,-0.30
2023-12-05T13:59:01.525Z,-0.40
2023-12-05T14:01:33.409Z,-0.40
2023-12-05T14:04:05.406Z,-0.50
2023-12-05T14:06:37.420Z,-0.50
2023-12-05T14:09:10.703Z,-0.50
2023-12-05T14:11:45.082Z,-0.60
2023-12-05T14:14:16.851Z,-0.60
2023-12-05T14:16:48.666Z,-0.60
2023-12-05T14:19:20.554Z,-0.60
2023-12-05T14:21:52.396Z,-0.70
2023-12-05T14:24:24.260Z,-0.80
2023-12-05T14:26:56.194Z,-0.80
2023-12-05T14:29:27.955Z,-0.80
2023-12-05T14:31:59.745Z,-0.80
2023-12-05T14:34:31.713Z,-0.90
2023-12-05T14:37:03.830Z,-0.90
2023-12-05T14:39:35.910Z,-0.90
2023-12-05T14:42:07.676Z,-1.00
2023-12-05T14:44:41.468Z,-1.00
2023-12-05T14:47:13.345Z,0.40
2023-12-05T14:49:45.186Z,-1.10
2023-12-05T14:52:17.341Z,-1.10
2023-12-05T14:54:49.320Z,-1.10
2023-12-05T14:57:22.372Z,-1.10
2023-12-05T14:59:56.447Z,-1.20
2023-12-05T15:02:28.278Z,-1.20
2023-12-05T15:05:00.296Z,-1.20
2023-12-05T15:07:32.076Z,-1.20
2023-12-05T15:10:04.485Z,-1.20
2023-12-05T15:12:36.373Z,-1.20
2023-12-05T15:15:08.977Z,-1.20
2023-12-05T15:17:41.730Z,-1.30
2023-12-05T15:20:20.295Z,-1.30
2023-12-05T15:22:55.481Z,-1.20
2023-12-05T15:25:27.305Z,-1.10
2023-12-05T15:27:59.090Z,-1.10
2023-12-05T15:30:30.958Z,-1.10
2023-12-05T15:33:02.904Z,-1.10
2023-12-05T15:35:34.842Z,-1.10
2023-12-05T15:38:06.612Z,-1.10
2023-12-05T15:40:38.327Z,-1.10
2023-12-05T15:43:10.311Z,-1.10
2023-12-05T15:45:42.231Z,-1.10
2023-12-05T15:48:42.701Z,-0.10
2023-12-05T15:51:06.078Z,-1.10
2023-12-05T15:53:37.863Z,-1.10
2023-12-05T15:56:12.014Z,-1.10
2023-12-05T15:58:43.855Z,-1.10
2023-12-05T16:01:15.715Z,-1.10
2023-12-05T16:03:47.714Z,-1.00
2023-12-05T16:06:20.259Z,-1.00
2023-12-05T16:08:53.196Z,-1.00
2023-12-05T16:11:25.347Z,-1.10
2023-12-05T16:13:57.234Z,-1.00
2023-12-05T16:16:29.144Z,-1.10
2023-12-05T16:19:01.027Z,-1.00
2023-12-05T16:21:33.305Z,-1.00
2023-12-05T16:24:06.188Z,-1.00
2023-12-05T16:26:38.662Z,-1.00
2023-12-05T16:29:10.432Z,-1.00
2023-12-05T16:31:42.411Z,-1.00
2023-12-05T16:34:14.238Z,-1.00
2023-12-05T16:36:46.293Z,-0.90
2023-12-05T16:39:18.072Z,-1.00
2023-12-05T16:41:49.882Z,-1.00
2023-12-05T16:44:21.722Z,-1.10
2023-12-05T16:46:54.212Z,-1.00
2023-12-05T16:49:26.048Z,-1.10
2023-12-05T16:51:57.914Z,-1.10
2023-12-05T16:54:30.141Z,-1.10
2023-12-05T16:57:01.946Z,-1.10
2023-12-05T16:59:35.202Z,-1.20
2023-12-05T17:02:07.921Z,-1.20
2023-12-05T17:04:40.381Z,-1.10
2023-12-05T17:07:12.520Z,-1.20
2023-12-05T17:09:44.402Z,-1.10
2023-12-05T17:12:16.233Z,-1.20
2023-12-05T17:14:48.691Z,-1.20
2023-12-05T17:17:20.793Z,-1.20
2023-12-05T17:19:52.835Z,-1.20
2023-12-05T17:22:26.605Z,-1.20
2023-12-05T17:24:59.486Z,-1.20
2023-12-05T17:27:31.478Z,-1.20
2023-12-05T17:30:04.393Z,-1.20
2023-12-05T17:32:36.736Z,-1.20
2023-12-05T17:35:11.564Z,0.30
2023-12-05T17:37:43.332Z,-1.20
2023-12-05T17:40:15.187Z,-1.20
2023-12-05T17:42:47.347Z,-1.10
2023-12-05T17:45:19.117Z,-1.20
2023-12-05T17:47:50.982Z,-1.20
2023-12-05T17:50:22.946Z,-1.20
2023-12-05T17:52:54.748Z,-1.20
2023-12-05T17:55:26.565Z,-1.20
2023-12-05T17:57:58.363Z,-1.20
2023-12-05T18:00:30.931Z,-1.20
2023-12-05T18:03:03.317Z,-1.20
2023-12-05T18:05:35.149Z,-1.20
2023-12-05T18:08:09.138Z,-1.20
2023-12-05T18:10:41.293Z,-1.20
2023-12-05T18:13:13.564Z,-0.60
2023-12-05T18:15:46.271Z,-1.20
2023-12-05T18:18:18.137Z,-1.20
2023-12-05T18:20:49.965Z,-1.20
2023-12-05T18:23:22.322Z,-1.20
2023-12-05T18:25:55.387Z,-1.10
2023-12-05T18:28:27.210Z,-1.20
2023-12-05T18:30:59.042Z,-1.10
2023-12-05T18:33:30.954Z,-1.20
2023-12-05T18:36:02.878Z,-1.20
2023-12-05T18:38:36.715Z,-1.20
2023-12-05T18:41:08.536Z,-1.20
2023-12-05T18:43:41.018Z,-1.20
2023-12-05T18:46:12.833Z,-1.20
2023-12-05T18:48:44.700Z,-1.30
2023-12-05T18:51:16.603Z,-1.30
2023-12-05T18:53:48.396Z,-1.30
2023-12-05T18:56:20.259Z,-1.30
2023-12-05T18:58:52.064Z,-1.30
2023-12-05T19:01:23.938Z,-1.30
2023-12-05T19:03:56.282Z,-1.30
2023-12-05T19:06:28.128Z,-1.30
2023-12-05T19:08:59.950Z,-1.30
2023-12-05T19:11:31.805Z,-1.40
2023-12-05T19:14:03.693Z,-1.40
2023-12-05T19:16:36.917Z,-1.40
2023-12-05T19:19:10.553Z,-1.40
2023-12-05T19:21:46.689Z,-1.40
2023-12-05T19:24:18.504Z,-1.40
2023-12-05T19:26:55.063Z,-1.40
2023-12-05T19:29:26.851Z,-1.40
2023-12-05T19:31:58.844Z,-1.40
2023-12-05T19:34:40.210Z,-1.40
2023-12-05T19:37:15.253Z,-1.50
2023-12-05T19:39:47.122Z,-1.50
2023-12-05T19:42:19.219Z,-1.50
2023-12-05T19:44:50.993Z,-1.50
2023-12-05T19:49:55.629Z,-1.50
2023-12-05T19:52:27.500Z,-1.50
2023-12-05T19:54:59.314Z,-1.50
2023-12-05T19:57:31.322Z,-1.60
2023-12-05T20:00:04.394Z,-1.50
2023-12-05T20:02:36.612Z,-1.60
2023-12-05T20:05:08.531Z,-1.60
2023-12-05T20:07:40.306Z,-1.60
2023-12-05T20:10:12.347Z,-1.60
2023-12-05T20:12:44.193Z,-1.60
2023-12-05T20:15:16.039Z,-1.60
2023-12-05T20:17:47.913Z,-1.60
2023-12-05T20:20:19.723Z,-1.60
2023-12-05T20:22:51.536Z,-1.60
2023-12-05T20:25:23.301Z,-1.60
2023-12-05T20:27:55.186Z,-1.70
2023-12-05T20:30:27.381Z,-1.70
2023-12-05T20:32:59.180Z,-1.70
2023-12-05T20:35:31.009Z,-1.70
2023-12-05T20:38:02.958Z,-1.50
2023-12-05T20:40:34.980Z,-1.70
2023-12-05T20:43:07.713Z,-1.70
2023-12-05T20:45:41.030Z,-1.70
2023-12-05T20:48:14.525Z,-1.70
2023-12-05T20:50:46.670Z,-1.70
2023-12-05T20:53:18.510Z,-1.70
2023-12-05T20:55:51.728Z,-1.70
2023-12-05T20:58:23.987Z,-1.70
2023-12-05T21:00:55.924Z,-1.80
2023-12-05T21:03:28.137Z,-1.80
2023-12-05T21:05:59.951Z,-1.80
2023-12-05T21:09:09.082Z,-1.80
2023-12-05T21:11:24.498Z,-1.80
2023-12-05T21:13:56.557Z,-1.80
2023-12-05T21:16:28.369Z,-1.80
2023-12-05T21:19:00.739Z,-1.80
2023-12-05T21:21:32.632Z,-1.80
2023-12-05T21:24:04.749Z,-1.80
2023-12-05T21:26:36.513Z,-1.70
2023-12-05T21:29:08.356Z,-1.80
2023-12-05T21:31:40.144Z,-1.70
2023-12-05T21:34:12.017Z,-1.80
2023-12-05T21:36:43.899Z,-1.80
2023-12-05T21:39:15.687Z,-1.80
2023-12-05T21:41:47.448Z,-1.80
2023-12-05T21:44:19.609Z,-1.70
2023-12-05T21:46:51.428Z,-1.70
2023-12-05T21:49:23.287Z,-1.70
2023-12-05T21:51:55.081Z,-1.70
2023-12-05T21:54:27.027Z,-1.70
2023-12-05T21:56:58.833Z,-1.70
2023-12-05T21:59:30.785Z,-1.60
2023-12-05T22:02:02.520Z,-1.60
2023-12-05T22:04:34.525Z,-1.60
2023-12-05T22:07:06.437Z,-1.60
2023-12-05T22:09:38.264Z,-1.50
2023-12-05T22:12:10.101Z,-1.50
2023-12-05T22:14:41.958Z,-1.50
2023-12-05T22:17:13.799Z,-1.50
2023-12-05T22:19:46.388Z,-1.50
2023-12-05T22:22:18.620Z,0.50
2023-12-05T22:24:50.404Z,-1.50
2023-12-05T22:27:22.362Z,-1.50
2023-12-05T22:29:55.640Z,-1.50
2023-12-05T22:32:27.923Z,-1.50
2023-12-05T22:34:59.839Z,-1.50
2023-12-05T22:37:31.644Z,-1.50
2023-12-05T22:40:04.379Z,-1.40
2023-12-05T22:42:36.223Z,-1.40
2023-12-05T22:45:08.570Z,-1.40
2023-12-05T22:47:40.444Z,-1.40
2023-12-05T22:50:12.258Z,-1.40
2023-12-05T22:52:44.027Z,-1.30
2023-12-05T22:55:15.851Z,-1.30
2023-12-05T22:57:50.181Z,-1.20
2023-12-05T23:00:26.913Z,-1.20
2023-12-05T23:02:58.831Z,-1.20
2023-12-05T23:05:30.815Z,-1.20
2023-12-05T23:08:02.616Z,-1.20
2023-12-05T23:10:35.328Z,-1.20
2023-12-05T23:13:07.263Z,-1.10
2023-12-05T23:15:39.232Z,-1.10
2023-12-05T23:18:11.138Z,-1.20
2023-12-05T23:20:43.043Z,-1.20
2023-12-05T23:23:15.746Z,-1.20
2023-12-05T23:25:47.516Z,-1.10
2023-12-05T23:28:24.608Z,-1.10
2023-12-05T23:30:57.829Z,-1.10
2023-12-05T23:36:01.947Z,-1.00
2023-12-05T23:38:33.750Z,-1.00
2023-12-05T23:41:05.659Z,-1.00
2023-12-05T23:43:37.512Z,-0.90
2023-12-05T23:46:09.600Z,-0.90
2023-12-05T23:48:41.492Z,-0.90
2023-12-05T23:51:13.354Z,-0.90
2023-12-05T23:53:45.320Z,-0.90
2023-12-05T23:56:17.569Z,-0.90
2023-12-05T23:58:49.380Z,-1.00
